sensor_id;sensor_type;location;lat;lon;timestamp;P1;durP1;ratioP1;P2;durP2;ratioP2
15677;SDS011;7939;50.814;6.368;2023-11-21T00:01:09;12.27;;;7.60;;
15677;SDS011;7939;50.814;6.368;2023-11-21T00:03:38;10.85;;;7.38;;
15677;SDS011;7939;50.814;6.368;2023-11-21T00:06:05;11.52;;;7.18;;
15677;SDS011;7939;50.814;6.368;2023-11-21T00:08:34;11.52;;;7.35;;
15677;SDS011;7939;50.814;6.368;2023-11-21T00:11:00;10.77;;;7.78;;
15677;SDS011;7939;50.814;6.368;2023-11-21T00:13:30;13.15;;;8.77;;
15677;SDS011;7939;50.814;6.368;2023-11-21T00:15:57;11.65;;;7.30;;
15677;SDS011;7939;50.814;6.368;2023-11-21T00:18:24;12.90;;;9.00;;
15677;SDS011;7939;50.814;6.368;2023-11-21T00:20:52;11.68;;;7.97;;
15677;SDS011;7939;50.814;6.368;2023-11-21T00:23:18;10.38;;;6.90;;
15677;SDS011;7939;50.814;6.368;2023-11-21T00:25:45;14.65;;;9.07;;
15677;SDS011;7939;50.814;6.368;2023-11-21T00:28:11;12.88;;;8.52;;
15677;SDS011;7939;50.814;6.368;2023-11-21T00:30:38;11.82;;;8.45;;
15677;SDS011;7939;50.814;6.368;2023-11-21T00:33:04;13.05;;;9.05;;
15677;SDS011;7939;50.814;6.368;2023-11-21T00:35:31;13.38;;;8.73;;
15677;SDS011;7939;50.814;6.368;2023-11-21T00:37:59;9.70;;;7.38;;
15677;SDS011;7939;50.814;6.368;2023-11-21T00:40:25;12.77;;;8.43;;
15677;SDS011;7939;50.814;6.368;2023-11-21T00:42:52;13.55;;;8.50;;
15677;SDS011;7939;50.814;6.368;2023-11-21T00:45:19;14.18;;;8.43;;
15677;SDS011;7939;50.814;6.368;2023-11-21T00:47:45;11.88;;;8.70;;
15677;SDS011;7939;50.814;6.368;2023-11-21T00:50:12;11.85;;;8.85;;
15677;SDS011;7939;50.814;6.368;2023-11-21T00:52:39;13.45;;;8.60;;
15677;SDS011;7939;50.814;6.368;2023-11-21T00:55:07;12.73;;;8.10;;
15677;SDS011;7939;50.814;6.368;2023-11-21T00:57:35;11.25;;;8.65;;
15677;SDS011;7939;50.814;6.368;2023-11-21T01:00:02;11.25;;;8.57;;
15677;SDS011;7939;50.814;6.368;2023-11-21T01:02:38;12.00;;;8.40;;
15677;SDS011;7939;50.814;6.368;2023-11-21T01:05:05;13.27;;;8.60;;
15677;SDS011;7939;50.814;6.368;2023-11-21T01:07:33;13.50;;;9.23;;
15677;SDS011;7939;50.814;6.368;2023-11-21T01:10:01;12.07;;;8.85;;
15677;SDS011;7939;50.814;6.368;2023-11-21T01:12:32;11.45;;;8.50;;
15677;SDS011;7939;50.814;6.368;2023-11-21T01:14:58;11.82;;;8.48;;
15677;SDS011;7939;50.814;6.368;2023-11-21T01:17:26;13.40;;;8.90;;
15677;SDS011;7939;50.814;6.368;2023-11-21T01:19:53;12.70;;;9.45;;
15677;SDS011;7939;50.814;6.368;2023-11-21T01:22:19;11.93;;;8.45;;
15677;SDS011;7939;50.814;6.368;2023-11-21T01:24:50;15.05;;;8.73;;
15677;SDS011;7939;50.814;6.368;2023-11-21T01:27:17;12.70;;;9.15;;
15677;SDS011;7939;50.814;6.368;2023-11-21T01:29:45;15.80;;;9.32;;
15677;SDS011;7939;50.814;6.368;2023-11-21T01:32:12;19.55;;;10.10;;
15677;SDS011;7939;50.814;6.368;2023-11-21T01:34:38;13.18;;;9.40;;
15677;SDS011;7939;50.814;6.368;2023-11-21T01:37:05;15.13;;;9.13;;
15677;SDS011;7939;50.814;6.368;2023-11-21T01:39:31;15.07;;;9.20;;
15677;SDS011;7939;50.814;6.368;2023-11-21T01:41:58;14.20;;;8.98;;
15677;SDS011;7939;50.814;6.368;2023-11-21T01:44:25;13.45;;;9.05;;
15677;SDS011;7939;50.814;6.368;2023-11-21T01:46:52;16.55;;;8.82;;
15677;SDS011;7939;50.814;6.368;2023-11-21T01:49:19;13.20;;;8.23;;
15677;SDS011;7939;50.814;6.368;2023-11-21T01:51:47;16.45;;;8.43;;
15677;SDS011;7939;50.814;6.368;2023-11-21T01:54:15;12.75;;;9.05;;
15677;SDS011;7939;50.814;6.368;2023-11-21T01:56:43;13.40;;;7.90;;
15677;SDS011;7939;50.814;6.368;2023-11-21T01:59:12;15.40;;;8.35;;
15677;SDS011;7939;50.814;6.368;2023-11-21T02:01:41;16.95;;;8.25;;
15677;SDS011;7939;50.814;6.368;2023-11-21T02:04:09;13.88;;;8.45;;
15677;SDS011;7939;50.814;6.368;2023-11-21T02:06:36;14.18;;;7.72;;
15677;SDS011;7939;50.814;6.368;2023-11-21T02:09:02;12.32;;;7.72;;
15677;SDS011;7939;50.814;6.368;2023-11-21T02:11:29;12.35;;;7.50;;
15677;SDS011;7939;50.814;6.368;2023-11-21T02:13:58;12.32;;;7.68;;
15677;SDS011;7939;50.814;6.368;2023-11-21T02:16:26;13.05;;;6.43;;
15677;SDS011;7939;50.814;6.368;2023-11-21T02:18:56;12.27;;;8.40;;
15677;SDS011;7939;50.814;6.368;2023-11-21T02:21:25;11.73;;;7.70;;
15677;SDS011;7939;50.814;6.368;2023-11-21T02:23:55;12.70;;;7.45;;
15677;SDS011;7939;50.814;6.368;2023-11-21T02:26:22;11.73;;;7.00;;
15677;SDS011;7939;50.814;6.368;2023-11-21T02:28:49;16.40;;;7.93;;
15677;SDS011;7939;50.814;6.368;2023-11-21T02:31:18;13.27;;;8.10;;
15677;SDS011;7939;50.814;6.368;2023-11-21T02:33:45;12.57;;;7.93;;
15677;SDS011;7939;50.814;6.368;2023-11-21T02:36:11;14.50;;;7.97;;
15677;SDS011;7939;50.814;6.368;2023-11-21T02:38:38;12.18;;;7.43;;
15677;SDS011;7939;50.814;6.368;2023-11-21T02:41:06;10.52;;;6.68;;
15677;SDS011;7939;50.814;6.368;2023-11-21T02:43:33;11.35;;;7.60;;
15677;SDS011;7939;50.814;6.368;2023-11-21T02:45:59;11.02;;;7.05;;
15677;SDS011;7939;50.814;6.368;2023-11-21T02:48:25;12.20;;;6.53;;
15677;SDS011;7939;50.814;6.368;2023-11-21T02:50:52;9.13;;;6.15;;
15677;SDS011;7939;50.814;6.368;2023-11-21T02:53:18;11.32;;;6.57;;
15677;SDS011;7939;50.814;6.368;2023-11-21T02:55:45;13.20;;;6.35;;
15677;SDS011;7939;50.814;6.368;2023-11-21T02:58:13;12.60;;;6.53;;
15677;SDS011;7939;50.814;6.368;2023-11-21T03:00:39;10.27;;;5.85;;
15677;SDS011;7939;50.814;6.368;2023-11-21T03:03:07;10.23;;;6.38;;
15677;SDS011;7939;50.814;6.368;2023-11-21T03:05:33;11.30;;;6.75;;
15677;SDS011;7939;50.814;6.368;2023-11-21T03:08:00;11.50;;;6.10;;
15677;SDS011;7939;50.814;6.368;2023-11-21T03:10:27;17.10;;;8.23;;
15677;SDS011;7939;50.814;6.368;2023-11-21T03:12:53;13.00;;;7.50;;
15677;SDS011;7939;50.814;6.368;2023-11-21T03:15:21;13.13;;;6.57;;
15677;SDS011;7939;50.814;6.368;2023-11-21T03:17:48;13.38;;;7.90;;
15677;SDS011;7939;50.814;6.368;2023-11-21T03:20:15;11.63;;;6.93;;
15677;SDS011;7939;50.814;6.368;2023-11-21T03:22:41;14.70;;;7.65;;
15677;SDS011;7939;50.814;6.368;2023-11-21T03:25:08;10.18;;;6.95;;
15677;SDS011;7939;50.814;6.368;2023-11-21T03:27:36;15.48;;;7.85;;
15677;SDS011;7939;50.814;6.368;2023-11-21T03:30:04;14.93;;;9.10;;
15677;SDS011;7939;50.814;6.368;2023-11-21T03:32:34;15.35;;;7.60;;
15677;SDS011;7939;50.814;6.368;2023-11-21T03:35:01;16.10;;;8.95;;
15677;SDS011;7939;50.814;6.368;2023-11-21T03:37:28;13.93;;;7.57;;
15677;SDS011;7939;50.814;6.368;2023-11-21T03:39:55;14.15;;;8.00;;
15677;SDS011;7939;50.814;6.368;2023-11-21T03:42:22;14.95;;;7.82;;
15677;SDS011;7939;50.814;6.368;2023-11-21T03:44:50;14.65;;;7.93;;
15677;SDS011;7939;50.814;6.368;2023-11-21T03:47:17;11.88;;;7.10;;
15677;SDS011;7939;50.814;6.368;2023-11-21T03:49:45;16.25;;;8.52;;
15677;SDS011;7939;50.814;6.368;2023-11-21T03:52:12;12.48;;;7.80;;
15677;SDS011;7939;50.814;6.368;2023-11-21T03:54:38;12.15;;;7.97;;
15677;SDS011;7939;50.814;6.368;2023-11-21T03:57:05;11.25;;;7.18;;
15677;SDS011;7939;50.814;6.368;2023-11-21T03:59:31;14.10;;;8.23;;
15677;SDS011;7939;50.814;6.368;2023-11-21T04:01:58;14.38;;;8.45;;
15677;SDS011;7939;50.814;6.368;2023-11-21T04:04:25;12.15;;;8.32;;
15677;SDS011;7939;50.814;6.368;2023-11-21T04:06:53;16.25;;;9.25;;
15677;SDS011;7939;50.814;6.368;2023-11-21T04:09:19;15.98;;;8.45;;
15677;SDS011;7939;50.814;6.368;2023-11-21T04:11:49;14.27;;;8.52;;
15677;SDS011;7939;50.814;6.368;2023-11-21T04:14:15;15.13;;;8.48;;
15677;SDS011;7939;50.814;6.368;2023-11-21T04:16:42;13.98;;;9.35;;
15677;SDS011;7939;50.814;6.368;2023-11-21T04:19:08;13.48;;;8.27;;
15677;SDS011;7939;50.814;6.368;2023-11-21T04:21:35;15.15;;;8.35;;
15677;SDS011;7939;50.814;6.368;2023-11-21T04:24:04;11.75;;;8.02;;
15677;SDS011;7939;50.814;6.368;2023-11-21T04:26:31;14.60;;;8.23;;
15677;SDS011;7939;50.814;6.368;2023-11-21T04:28:58;12.75;;;7.40;;
15677;SDS011;7939;50.814;6.368;2023-11-21T04:31:24;10.13;;;7.15;;
15677;SDS011;7939;50.814;6.368;2023-11-21T04:33:51;14.13;;;7.45;;
15677;SDS011;7939;50.814;6.368;2023-11-21T04:36:18;12.98;;;7.43;;
15677;SDS011;7939;50.814;6.368;2023-11-21T04:38:45;11.88;;;7.65;;
15677;SDS011;7939;50.814;6.368;2023-11-21T04:41:13;12.95;;;9.07;;
15677;SDS011;7939;50.814;6.368;2023-11-21T04:43:40;15.82;;;9.02;;
15677;SDS011;7939;50.814;6.368;2023-11-21T04:46:07;14.75;;;7.93;;
15677;SDS011;7939;50.814;6.368;2023-11-21T04:48:34;14.88;;;9.07;;
15677;SDS011;7939;50.814;6.368;2023-11-21T04:51:00;11.55;;;7.55;;
15677;SDS011;7939;50.814;6.368;2023-11-21T04:53:29;12.90;;;7.22;;
15677;SDS011;7939;50.814;6.368;2023-11-21T04:55:56;12.07;;;7.65;;
15677;SDS011;7939;50.814;6.368;2023-11-21T04:58:26;14.63;;;8.40;;
15677;SDS011;7939;50.814;6.368;2023-11-21T05:00:53;17.02;;;9.20;;
15677;SDS011;7939;50.814;6.368;2023-11-21T05:03:19;13.85;;;8.80;;
15677;SDS011;7939;50.814;6.368;2023-11-21T05:05:48;17.15;;;8.63;;
15677;SDS011;7939;50.814;6.368;2023-11-21T05:08:15;14.75;;;8.50;;
15677;SDS011;7939;50.814;6.368;2023-11-21T05:10:42;17.58;;;9.23;;
15677;SDS011;7939;50.814;6.368;2023-11-21T05:13:08;16.67;;;8.63;;
15677;SDS011;7939;50.814;6.368;2023-11-21T05:15:37;16.02;;;9.48;;
15677;SDS011;7939;50.814;6.368;2023-11-21T05:18:04;18.10;;;10.07;;
15677;SDS011;7939;50.814;6.368;2023-11-21T05:20:31;16.75;;;10.02;;
15677;SDS011;7939;50.814;6.368;2023-11-21T05:22:58;20.48;;;11.20;;
15677;SDS011;7939;50.814;6.368;2023-11-21T05:25:25;16.83;;;10.30;;
15677;SDS011;7939;50.814;6.368;2023-11-21T05:27:51;20.13;;;9.75;;
15677;SDS011;7939;50.814;6.368;2023-11-21T05:30:19;15.38;;;10.13;;
15677;SDS011;7939;50.814;6.368;2023-11-21T05:32:48;15.27;;;8.45;;
15677;SDS011;7939;50.814;6.368;2023-11-21T05:35:15;13.25;;;8.88;;
15677;SDS011;7939;50.814;6.368;2023-11-21T05:37:43;13.43;;;8.32;;
15677;SDS011;7939;50.814;6.368;2023-11-21T05:40:10;19.58;;;9.30;;
15677;SDS011;7939;50.814;6.368;2023-11-21T05:42:38;15.70;;;9.50;;
15677;SDS011;7939;50.814;6.368;2023-11-21T05:45:05;12.05;;;8.10;;
15677;SDS011;7939;50.814;6.368;2023-11-21T05:47:36;15.40;;;8.65;;
15677;SDS011;7939;50.814;6.368;2023-11-21T05:50:05;16.77;;;9.55;;
15677;SDS011;7939;50.814;6.368;2023-11-21T05:52:35;16.52;;;9.13;;
15677;SDS011;7939;50.814;6.368;2023-11-21T05:55:02;17.08;;;9.38;;
15677;SDS011;7939;50.814;6.368;2023-11-21T05:57:30;14.70;;;9.18;;
15677;SDS011;7939;50.814;6.368;2023-11-21T05:59:57;15.30;;;8.95;;
15677;SDS011;7939;50.814;6.368;2023-11-21T06:02:24;15.70;;;8.68;;
15677;SDS011;7939;50.814;6.368;2023-11-21T06:04:51;17.17;;;8.90;;
15677;SDS011;7939;50.814;6.368;2023-11-21T06:07:19;14.63;;;7.68;;
15677;SDS011;7939;50.814;6.368;2023-11-21T06:09:45;19.67;;;10.73;;
15677;SDS011;7939;50.814;6.368;2023-11-21T06:12:13;20.10;;;9.55;;
15677;SDS011;7939;50.814;6.368;2023-11-21T06:14:41;15.65;;;8.52;;
15677;SDS011;7939;50.814;6.368;2023-11-21T06:17:07;14.45;;;9.70;;
15677;SDS011;7939;50.814;6.368;2023-11-21T06:19:34;16.63;;;10.15;;
15677;SDS011;7939;50.814;6.368;2023-11-21T06:22:01;14.90;;;9.90;;
15677;SDS011;7939;50.814;6.368;2023-11-21T06:24:29;15.88;;;9.95;;
15677;SDS011;7939;50.814;6.368;2023-11-21T06:26:55;17.17;;;10.18;;
15677;SDS011;7939;50.814;6.368;2023-11-21T06:29:22;14.75;;;9.50;;
15677;SDS011;7939;50.814;6.368;2023-11-21T06:31:49;14.32;;;8.93;;
15677;SDS011;7939;50.814;6.368;2023-11-21T06:34:15;17.88;;;10.13;;
15677;SDS011;7939;50.814;6.368;2023-11-21T06:36:42;15.27;;;8.93;;
15677;SDS011;7939;50.814;6.368;2023-11-21T06:39:09;14.55;;;8.85;;
15677;SDS011;7939;50.814;6.368;2023-11-21T06:41:37;19.08;;;9.88;;
15677;SDS011;7939;50.814;6.368;2023-11-21T06:44:04;17.50;;;9.65;;
15677;SDS011;7939;50.814;6.368;2023-11-21T06:46:30;16.90;;;9.43;;
15677;SDS011;7939;50.814;6.368;2023-11-21T06:48:57;18.02;;;10.13;;
15677;SDS011;7939;50.814;6.368;2023-11-21T06:51:23;17.10;;;9.50;;
15677;SDS011;7939;50.814;6.368;2023-11-21T06:53:50;16.90;;;8.95;;
15677;SDS011;7939;50.814;6.368;2023-11-21T06:56:17;20.35;;;10.52;;
15677;SDS011;7939;50.814;6.368;2023-11-21T06:58:45;18.83;;;10.50;;
15677;SDS011;7939;50.814;6.368;2023-11-21T07:01:12;18.38;;;10.43;;
15677;SDS011;7939;50.814;6.368;2023-11-21T07:03:40;20.02;;;9.75;;
15677;SDS011;7939;50.814;6.368;2023-11-21T07:06:07;17.10;;;10.05;;
15677;SDS011;7939;50.814;6.368;2023-11-21T07:08:34;19.15;;;10.80;;
15677;SDS011;7939;50.814;6.368;2023-11-21T07:11:01;21.23;;;11.65;;
15677;SDS011;7939;50.814;6.368;2023-11-21T07:13:28;20.55;;;11.00;;
15677;SDS011;7939;50.814;6.368;2023-11-21T07:15:57;20.05;;;11.35;;
15677;SDS011;7939;50.814;6.368;2023-11-21T07:18:25;20.60;;;11.35;;
15677;SDS011;7939;50.814;6.368;2023-11-21T07:20:52;20.90;;;11.90;;
15677;SDS011;7939;50.814;6.368;2023-11-21T07:23:19;18.75;;;11.05;;
15677;SDS011;7939;50.814;6.368;2023-11-21T07:25:47;23.35;;;12.98;;
15677;SDS011;7939;50.814;6.368;2023-11-21T07:28:14;26.52;;;13.48;;
15677;SDS011;7939;50.814;6.368;2023-11-21T07:30:41;23.88;;;11.48;;
15677;SDS011;7939;50.814;6.368;2023-11-21T07:33:09;23.63;;;11.32;;
15677;SDS011;7939;50.814;6.368;2023-11-21T07:35:36;22.17;;;12.18;;
15677;SDS011;7939;50.814;6.368;2023-11-21T07:38:02;18.17;;;10.70;;
15677;SDS011;7939;50.814;6.368;2023-11-21T07:40:29;18.42;;;9.38;;
15677;SDS011;7939;50.814;6.368;2023-11-21T07:42:56;19.48;;;10.48;;
15677;SDS011;7939;50.814;6.368;2023-11-21T07:45:23;19.63;;;11.15;;
15677;SDS011;7939;50.814;6.368;2023-11-21T07:47:52;18.30;;;10.23;;
15677;SDS011;7939;50.814;6.368;2023-11-21T07:50:21;19.35;;;10.32;;
15677;SDS011;7939;50.814;6.368;2023-11-21T07:52:48;21.15;;;11.80;;
15677;SDS011;7939;50.814;6.368;2023-11-21T07:55:14;22.40;;;11.43;;
15677;SDS011;7939;50.814;6.368;2023-11-21T07:57:41;18.73;;;10.50;;
15677;SDS011;7939;50.814;6.368;2023-11-21T08:00:08;21.27;;;10.85;;
15677;SDS011;7939;50.814;6.368;2023-11-21T08:02:37;23.60;;;12.00;;
15677;SDS011;7939;50.814;6.368;2023-11-21T08:05:04;22.58;;;12.45;;
15677;SDS011;7939;50.814;6.368;2023-11-21T08:07:33;14.55;;;9.65;;
15677;SDS011;7939;50.814;6.368;2023-11-21T08:10:00;23.10;;;12.07;;
15677;SDS011;7939;50.814;6.368;2023-11-21T08:12:26;20.88;;;10.68;;
15677;SDS011;7939;50.814;6.368;2023-11-21T08:14:53;22.80;;;12.50;;
15677;SDS011;7939;50.814;6.368;2023-11-21T08:17:20;22.48;;;12.82;;
15677;SDS011;7939;50.814;6.368;2023-11-21T08:19:46;24.27;;;12.30;;
15677;SDS011;7939;50.814;6.368;2023-11-21T08:22:14;19.95;;;11.68;;
15677;SDS011;7939;50.814;6.368;2023-11-21T08:24:42;17.73;;;9.38;;
15677;SDS011;7939;50.814;6.368;2023-11-21T08:27:09;22.83;;;11.98;;
15677;SDS011;7939;50.814;6.368;2023-11-21T08:29:36;26.27;;;11.73;;
15677;SDS011;7939;50.814;6.368;2023-11-21T08:32:03;25.55;;;13.55;;
15677;SDS011;7939;50.814;6.368;2023-11-21T08:34:30;26.20;;;13.15;;
15677;SDS011;7939;50.814;6.368;2023-11-21T08:36:57;26.13;;;13.13;;
15677;SDS011;7939;50.814;6.368;2023-11-21T08:39:23;24.88;;;12.35;;
15677;SDS011;7939;50.814;6.368;2023-11-21T08:41:53;22.73;;;12.25;;
15677;SDS011;7939;50.814;6.368;2023-11-21T08:44:19;27.42;;;12.77;;
15677;SDS011;7939;50.814;6.368;2023-11-21T08:46:46;29.05;;;13.10;;
15677;SDS011;7939;50.814;6.368;2023-11-21T08:49:13;27.55;;;12.90;;
15677;SDS011;7939;50.814;6.368;2023-11-21T08:51:40;22.98;;;12.98;;
15677;SDS011;7939;50.814;6.368;2023-11-21T08:54:07;23.00;;;12.25;;
15677;SDS011;7939;50.814;6.368;2023-11-21T08:56:34;21.58;;;12.05;;
15677;SDS011;7939;50.814;6.368;2023-11-21T08:59:02;23.45;;;12.75;;
15677;SDS011;7939;50.814;6.368;2023-11-21T09:01:29;22.70;;;12.93;;
15677;SDS011;7939;50.814;6.368;2023-11-21T09:03:58;21.85;;;11.68;;
15677;SDS011;7939;50.814;6.368;2023-11-21T09:06:24;21.77;;;9.93;;
15677;SDS011;7939;50.814;6.368;2023-11-21T09:08:51;22.48;;;11.30;;
15677;SDS011;7939;50.814;6.368;2023-11-21T09:11:17;26.23;;;14.30;;
15677;SDS011;7939;50.814;6.368;2023-11-21T09:13:44;29.90;;;16.65;;
15677;SDS011;7939;50.814;6.368;2023-11-21T09:16:13;24.00;;;11.52;;
15677;SDS011;7939;50.814;6.368;2023-11-21T09:18:40;22.10;;;11.68;;
15677;SDS011;7939;50.814;6.368;2023-11-21T09:21:07;27.23;;;12.45;;
15677;SDS011;7939;50.814;6.368;2023-11-21T09:23:33;21.15;;;11.02;;
15677;SDS011;7939;50.814;6.368;2023-11-21T09:26:00;23.42;;;10.90;;
15677;SDS011;7939;50.814;6.368;2023-11-21T09:28:27;22.67;;;11.60;;
15677;SDS011;7939;50.814;6.368;2023-11-21T09:30:53;26.90;;;12.30;;
15677;SDS011;7939;50.814;6.368;2023-11-21T09:33:21;27.27;;;13.25;;
15677;SDS011;7939;50.814;6.368;2023-11-21T09:35:50;27.40;;;12.27;;
15677;SDS011;7939;50.814;6.368;2023-11-21T09:38:17;27.13;;;12.27;;
15677;SDS011;7939;50.814;6.368;2023-11-21T09:40:44;28.45;;;12.40;;
15677;SDS011;7939;50.814;6.368;2023-11-21T09:43:13;28.80;;;12.10;;
15677;SDS011;7939;50.814;6.368;2023-11-21T09:45:44;23.15;;;11.85;;
15677;SDS011;7939;50.814;6.368;2023-11-21T09:48:12;31.35;;;11.73;;
15677;SDS011;7939;50.814;6.368;2023-11-21T09:50:40;24.45;;;11.43;;
15677;SDS011;7939;50.814;6.368;2023-11-21T09:53:09;25.77;;;11.02;;
15677;SDS011;7939;50.814;6.368;2023-11-21T09:55:42;30.05;;;12.23;;
15677;SDS011;7939;50.814;6.368;2023-11-21T09:58:09;30.13;;;11.98;;
15677;SDS011;7939;50.814;6.368;2023-11-21T10:00:38;23.33;;;11.40;;
15677;SDS011;7939;50.814;6.368;2023-11-21T10:03:06;27.50;;;12.25;;
15677;SDS011;7939;50.814;6.368;2023-11-21T10:05:33;27.45;;;11.50;;
15677;SDS011;7939;50.814;6.368;2023-11-21T10:08:02;29.92;;;12.15;;
15677;SDS011;7939;50.814;6.368;2023-11-21T10:10:32;28.95;;;11.35;;
15677;SDS011;7939;50.814;6.368;2023-11-21T10:13:01;27.67;;;11.23;;
15677;SDS011;7939;50.814;6.368;2023-11-21T10:15:31;26.27;;;9.68;;
15677;SDS011;7939;50.814;6.368;2023-11-21T10:17:59;24.17;;;10.10;;
15677;SDS011;7939;50.814;6.368;2023-11-21T10:20:28;26.25;;;10.77;;
15677;SDS011;7939;50.814;6.368;2023-11-21T10:22:56;27.63;;;11.05;;
15677;SDS011;7939;50.814;6.368;2023-11-21T10:25:24;27.85;;;11.23;;
15677;SDS011;7939;50.814;6.368;2023-11-21T10:27:55;22.58;;;9.15;;
15677;SDS011;7939;50.814;6.368;2023-11-21T10:30:27;27.75;;;11.18;;
15677;SDS011;7939;50.814;6.368;2023-11-21T10:32:58;19.50;;;9.75;;
15677;SDS011;7939;50.814;6.368;2023-11-21T10:35:37;20.83;;;9.80;;
15677;SDS011;7939;50.814;6.368;2023-11-21T10:38:07;24.60;;;9.75;;
15677;SDS011;7939;50.814;6.368;2023-11-21T10:40:38;22.52;;;8.77;;
15677;SDS011;7939;50.814;6.368;2023-11-21T10:43:07;19.35;;;9.00;;
15677;SDS011;7939;50.814;6.368;2023-11-21T10:45:35;20.70;;;8.10;;
15677;SDS011;7939;50.814;6.368;2023-11-21T10:48:04;24.40;;;9.23;;
15677;SDS011;7939;50.814;6.368;2023-11-21T10:50:32;18.15;;;8.80;;
15677;SDS011;7939;50.814;6.368;2023-11-21T10:53:00;26.67;;;9.15;;
15677;SDS011;7939;50.814;6.368;2023-11-21T10:55:27;23.58;;;9.38;;
15677;SDS011;7939;50.814;6.368;2023-11-21T10:57:55;19.48;;;9.52;;
15677;SDS011;7939;50.814;6.368;2023-11-21T11:00:25;19.83;;;10.05;;
15677;SDS011;7939;50.814;6.368;2023-11-21T11:02:53;24.15;;;10.70;;
15677;SDS011;7939;50.814;6.368;2023-11-21T11:05:20;24.90;;;10.60;;
15677;SDS011;7939;50.814;6.368;2023-11-21T11:07:50;25.70;;;10.45;;
15677;SDS011;7939;50.814;6.368;2023-11-21T11:10:19;23.27;;;9.32;;
15677;SDS011;7939;50.814;6.368;2023-11-21T11:12:48;24.60;;;10.10;;
15677;SDS011;7939;50.814;6.368;2023-11-21T11:15:16;18.20;;;8.25;;
15677;SDS011;7939;50.814;6.368;2023-11-21T11:17:43;21.70;;;9.27;;
15677;SDS011;7939;50.814;6.368;2023-11-21T11:20:11;19.38;;;9.20;;
15677;SDS011;7939;50.814;6.368;2023-11-21T11:22:42;21.30;;;9.63;;
15677;SDS011;7939;50.814;6.368;2023-11-21T11:25:25;21.05;;;10.38;;
15677;SDS011;7939;50.814;6.368;2023-11-21T11:28:02;19.00;;;9.70;;
15677;SDS011;7939;50.814;6.368;2023-11-21T11:30:38;24.45;;;10.82;;
15677;SDS011;7939;50.814;6.368;2023-11-21T11:33:15;25.58;;;11.18;;
15677;SDS011;7939;50.814;6.368;2023-11-21T11:35:52;23.85;;;10.98;;
15677;SDS011;7939;50.814;6.368;2023-11-21T11:38:23;24.02;;;9.63;;
15677;SDS011;7939;50.814;6.368;2023-11-21T11:40:52;23.88;;;10.13;;
15677;SDS011;7939;50.814;6.368;2023-11-21T11:43:24;28.17;;;11.23;;
15677;SDS011;7939;50.814;6.368;2023-11-21T11:45:53;22.92;;;10.73;;
15677;SDS011;7939;50.814;6.368;2023-11-21T11:48:22;25.58;;;11.85;;
15677;SDS011;7939;50.814;6.368;2023-11-21T11:53:40;25.55;;;10.75;;
15677;SDS011;7939;50.814;6.368;2023-11-21T11:56:24;21.77;;;9.88;;
15677;SDS011;7939;50.814;6.368;2023-11-21T11:58:53;26.45;;;10.48;;
15677;SDS011;7939;50.814;6.368;2023-11-21T12:01:23;21.48;;;9.18;;
15677;SDS011;7939;50.814;6.368;2023-11-21T12:07:01;21.58;;;9.75;;
15677;SDS011;7939;50.814;6.368;2023-11-21T12:09:31;20.95;;;10.27;;
15677;SDS011;7939;50.814;6.368;2023-11-21T12:11:59;21.38;;;9.25;;
15677;SDS011;7939;50.814;6.368;2023-11-21T12:14:26;22.48;;;10.32;;
15677;SDS011;7939;50.814;6.368;2023-11-21T12:16:55;23.65;;;9.93;;
15677;SDS011;7939;50.814;6.368;2023-11-21T12:19:22;22.65;;;10.15;;
15677;SDS011;7939;50.814;6.368;2023-11-21T12:21:49;19.60;;;10.35;;
15677;SDS011;7939;50.814;6.368;2023-11-21T12:24:16;18.55;;;9.30;;
15677;SDS011;7939;50.814;6.368;2023-11-21T12:26:43;21.48;;;10.75;;
15677;SDS011;7939;50.814;6.368;2023-11-21T12:29:10;24.05;;;9.82;;
15677;SDS011;7939;50.814;6.368;2023-11-21T12:31:36;22.08;;;9.55;;
15677;SDS011;7939;50.814;6.368;2023-11-21T12:34:04;22.40;;;9.35;;
15677;SDS011;7939;50.814;6.368;2023-11-21T12:36:32;25.73;;;9.20;;
15677;SDS011;7939;50.814;6.368;2023-11-21T12:39:00;24.90;;;9.60;;
15677;SDS011;7939;50.814;6.368;2023-11-21T12:41:27;17.08;;;7.80;;
15677;SDS011;7939;50.814;6.368;2023-11-21T12:43:54;22.20;;;9.05;;
15677;SDS011;7939;50.814;6.368;2023-11-21T12:46:21;19.80;;;6.53;;
15677;SDS011;7939;50.814;6.368;2023-11-21T12:48:48;15.15;;;5.95;;
15677;SDS011;7939;50.814;6.368;2023-11-21T12:51:16;16.05;;;5.90;;
15677;SDS011;7939;50.814;6.368;2023-11-21T12:53:44;14.02;;;6.13;;
15677;SDS011;7939;50.814;6.368;2023-11-21T12:56:12;11.93;;;5.80;;
15677;SDS011;7939;50.814;6.368;2023-11-21T12:58:43;16.70;;;7.03;;
15677;SDS011;7939;50.814;6.368;2023-11-21T13:01:12;18.13;;;7.72;;
15677;SDS011;7939;50.814;6.368;2023-11-21T13:03:45;18.15;;;7.53;;
15677;SDS011;7939;50.814;6.368;2023-11-21T13:06:14;18.65;;;8.13;;
15677;SDS011;7939;50.814;6.368;2023-11-21T13:08:43;17.65;;;7.75;;
15677;SDS011;7939;50.814;6.368;2023-11-21T13:11:10;20.63;;;8.48;;
15677;SDS011;7939;50.814;6.368;2023-11-21T13:13:39;21.23;;;9.05;;
15677;SDS011;7939;50.814;6.368;2023-11-21T13:16:08;20.48;;;9.40;;
15677;SDS011;7939;50.814;6.368;2023-11-21T13:18:35;23.70;;;9.63;;
15677;SDS011;7939;50.814;6.368;2023-11-21T13:21:02;24.38;;;9.98;;
15677;SDS011;7939;50.814;6.368;2023-11-21T13:23:35;24.17;;;11.88;;
15677;SDS011;7939;50.814;6.368;2023-11-21T13:26:04;22.05;;;10.30;;
15677;SDS011;7939;50.814;6.368;2023-11-21T13:28:32;25.15;;;10.88;;
15677;SDS011;7939;50.814;6.368;2023-11-21T13:30:59;24.77;;;11.43;;
15677;SDS011;7939;50.814;6.368;2023-11-21T13:33:34;26.85;;;11.38;;
15677;SDS011;7939;50.814;6.368;2023-11-21T13:36:03;25.17;;;10.55;;
15677;SDS011;7939;50.814;6.368;2023-11-21T13:38:33;27.63;;;13.23;;
15677;SDS011;7939;50.814;6.368;2023-11-21T13:41:00;28.92;;;12.68;;
15677;SDS011;7939;50.814;6.368;2023-11-21T13:43:33;23.42;;;11.57;;
15677;SDS011;7939;50.814;6.368;2023-11-21T13:46:02;26.67;;;12.25;;
15677;SDS011;7939;50.814;6.368;2023-11-21T13:48:35;22.17;;;10.80;;
15677;SDS011;7939;50.814;6.368;2023-11-21T13:51:07;22.58;;;10.98;;
15677;SDS011;7939;50.814;6.368;2023-11-21T13:53:41;23.75;;;9.70;;
15677;SDS011;7939;50.814;6.368;2023-11-21T13:56:08;23.52;;;10.88;;
15677;SDS011;7939;50.814;6.368;2023-11-21T13:58:36;21.58;;;11.30;;
15677;SDS011;7939;50.814;6.368;2023-11-21T14:01:10;19.52;;;10.52;;
15677;SDS011;7939;50.814;6.368;2023-11-21T14:03:50;24.70;;;11.75;;
15677;SDS011;7939;50.814;6.368;2023-11-21T14:06:22;25.08;;;11.48;;
15677;SDS011;7939;50.814;6.368;2023-11-21T14:08:53;20.55;;;9.65;;
15677;SDS011;7939;50.814;6.368;2023-11-21T14:11:21;21.77;;;10.10;;
15677;SDS011;7939;50.814;6.368;2023-11-21T14:13:49;24.35;;;11.15;;
15677;SDS011;7939;50.814;6.368;2023-11-21T14:16:16;24.08;;;12.50;;
15677;SDS011;7939;50.814;6.368;2023-11-21T14:18:43;22.02;;;10.95;;
15677;SDS011;7939;50.814;6.368;2023-11-21T14:21:18;20.42;;;9.95;;
15677;SDS011;7939;50.814;6.368;2023-11-21T14:23:44;27.63;;;11.57;;
15677;SDS011;7939;50.814;6.368;2023-11-21T14:26:11;20.83;;;10.35;;
15677;SDS011;7939;50.814;6.368;2023-11-21T14:28:39;21.42;;;10.20;;
15677;SDS011;7939;50.814;6.368;2023-11-21T14:31:08;22.90;;;11.23;;
15677;SDS011;7939;50.814;6.368;2023-11-21T14:33:38;22.42;;;10.35;;
15677;SDS011;7939;50.814;6.368;2023-11-21T14:36:05;25.77;;;12.93;;
15677;SDS011;7939;50.814;6.368;2023-11-21T14:38:33;22.63;;;11.88;;
15677;SDS011;7939;50.814;6.368;2023-11-21T14:41:00;24.45;;;10.88;;
15677;SDS011;7939;50.814;6.368;2023-11-21T14:43:26;25.92;;;11.82;;
15677;SDS011;7939;50.814;6.368;2023-11-21T14:45:55;19.88;;;10.75;;
15677;SDS011;7939;50.814;6.368;2023-11-21T14:48:24;29.30;;;13.70;;
15677;SDS011;7939;50.814;6.368;2023-11-21T14:51:07;29.25;;;13.45;;
15677;SDS011;7939;50.814;6.368;2023-11-21T14:53:52;28.25;;;13.50;;